Time;durP1;ratioP1;P1;durP2;ratioP2;P2;SDS_P1;SDS_P2;PMS_P1;PMS_P2;Temp;Humidity;BMP_temperature;BMP_pressure;BME280_temperature;BME280_humidity;BME280_pressure;Samples;Min_cycle;Max_cycle;Signal;HPM_P1;HPM_P2
2021/05/13 00:02:21;;;;;;;19.30;13.50;;;10.90;99.90;;;;;;5130978;27;20200;-61
2021/05/13 00:04:47;;;;;;;20.50;13.20;;;10.90;99.90;;;;;;5135416;27;20220;-61
2021/05/13 00:07:14;;;;;;;18.67;13.23;;;10.90;99.90;;;;;;5144614;27;20210;-59
2021/05/13 00:09:42;;;;;;;19.87;13.27;;;10.90;99.90;;;;;;5140466;27;20252;-61
2021/05/13 00:12:14;;;;;;;20.13;13.33;;;10.90;99.90;;;;;;5134637;27;20633;-59
2021/05/13 00:14:41;;;;;;;19.57;13.77;;;10.90;99.90;;;;;;5130717;27;20604;-59
2021/05/13 00:17:08;;;;;;;20.13;12.90;;;10.90;99.90;;;;;;5138237;27;20199;-58
2021/05/13 00:19:34;;;;;;;17.23;12.60;;;10.90;99.90;;;;;;5142917;27;20198;-61
2021/05/13 00:22:00;;;;;;;19.33;13.33;;;11.00;99.90;;;;;;5127616;27;20216;-59
2021/05/13 00:24:27;;;;;;;22.23;13.63;;;11.00;99.90;;;;;;5124825;27;20212;-59
2021/05/13 00:26:58;;;;;;;22.63;13.90;;;10.90;99.90;;;;;;5116883;27;20258;-59
2021/05/13 00:29:26;;;;;;;21.37;13.43;;;10.90;99.90;;;;;;5090390;27;20232;-55
2021/05/13 00:31:53;;;;;;;19.00;12.83;;;11.00;99.90;;;;;;5133650;27;20192;-51
2021/05/13 00:34:19;;;;;;;25.40;14.13;;;11.00;99.90;;;;;;5120416;27;20209;-58
2021/05/13 00:36:45;;;;;;;24.23;14.50;;;11.00;99.90;;;;;;5124288;27;20192;-58
2021/05/13 00:39:11;;;;;;;25.27;15.83;;;11.00;99.90;;;;;;5113934;27;20985;-58
2021/05/13 00:41:39;;;;;;;22.53;14.23;;;11.00;99.90;;;;;;5120779;27;20217;-55
2021/05/13 00:44:06;;;;;;;22.60;15.33;;;10.90;99.90;;;;;;5144091;27;20585;-59
2021/05/13 00:46:33;;;;;;;23.13;15.20;;;10.80;99.90;;;;;;5124547;27;20299;-59
2021/05/13 00:49:03;;;;;;;21.60;14.27;;;10.90;99.90;;;;;;5135822;27;20669;-56
2021/05/13 00:51:29;;;;;;;28.00;15.20;;;10.80;99.90;;;;;;5129768;27;20264;-58
2021/05/13 00:53:56;;;;;;;24.13;15.23;;;10.80;99.90;;;;;;5135121;27;20303;-56
2021/05/13 00:56:23;;;;;;;24.53;14.70;;;10.80;99.90;;;;;;5140728;27;20184;-58
2021/05/13 00:58:52;;;;;;;24.27;14.93;;;10.80;99.90;;;;;;5128207;27;20199;-56
2021/05/13 01:01:21;;;;;;;23.77;14.07;;;10.90;99.90;;;;;;5114515;27;20625;-59
2021/05/13 01:03:47;;;;;;;22.50;15.47;;;10.80;99.90;;;;;;5134445;27;20343;-55
2021/05/13 01:06:15;;;;;;;24.77;14.90;;;10.80;99.90;;;;;;5125929;27;20218;-61
2021/05/13 01:08:42;;;;;;;23.70;15.87;;;10.80;99.90;;;;;;5134525;27;20192;-53
2021/05/13 01:11:11;;;;;;;21.40;14.13;;;10.90;99.90;;;;;;5144058;27;20275;-59
2021/05/13 01:13:52;;;;;;;23.57;15.10;;;10.90;99.90;;;;;;5118476;27;20307;-59
2021/05/13 01:16:26;;;;;;;23.00;14.00;;;10.90;99.90;;;;;;5116678;27;20538;-58
2021/05/13 01:18:52;;;;;;;23.23;14.93;;;10.90;99.90;;;;;;5112905;27;20201;-59
2021/05/13 01:21:19;;;;;;;29.27;14.27;;;10.90;99.90;;;;;;5139187;27;20201;-61
2021/05/13 01:23:46;;;;;;;28.07;15.63;;;10.90;99.90;;;;;;5124218;27;20223;-59
2021/05/13 01:26:14;;;;;;;23.63;14.00;;;10.90;99.90;;;;;;5124092;27;21022;-61
2021/05/13 01:28:40;;;;;;;20.10;14.07;;;10.80;99.90;;;;;;5124538;27;20193;-59
2021/05/13 01:31:06;;;;;;;25.53;15.63;;;10.70;99.90;;;;;;5103615;27;20303;-60
2021/05/13 01:33:33;;;;;;;24.73;15.70;;;10.80;99.90;;;;;;5118203;27;20291;-61
2021/05/13 01:35:59;;;;;;;25.90;16.60;;;10.70;99.90;;;;;;5147576;27;20187;-60
2021/05/13 01:38:26;;;;;;;22.80;14.43;;;10.70;99.90;;;;;;5152002;27;20207;-61
2021/05/13 01:40:56;;;;;;;23.80;15.43;;;10.80;99.90;;;;;;5146087;27;20272;-59
2021/05/13 01:43:23;;;;;;;29.00;15.67;;;10.80;99.90;;;;;;5145768;27;20231;-60
2021/05/13 01:45:49;;;;;;;22.87;14.60;;;10.70;99.90;;;;;;5123870;27;20207;-59
2021/05/13 01:48:16;;;;;;;26.23;17.13;;;10.80;99.90;;;;;;5117714;27;20264;-61
2021/05/13 01:50:42;;;;;;;25.57;17.00;;;10.80;99.90;;;;;;5132872;27;20197;-58
2021/05/13 01:53:08;;;;;;;23.40;16.60;;;10.80;99.90;;;;;;5136789;27;20421;-59
2021/05/13 01:55:36;;;;;;;29.03;16.70;;;10.80;99.90;;;;;;5146771;27;20217;-55
2021/05/13 01:58:03;;;;;;;26.70;15.63;;;10.80;99.90;;;;;;5134907;27;20845;-58
2021/05/13 02:00:30;;;;;;;25.57;15.80;;;10.80;99.90;;;;;;5116668;27;20206;-60
2021/05/13 02:02:56;;;;;;;31.23;16.87;;;10.70;99.90;;;;;;5130111;27;20212;-61
2021/05/13 02:05:23;;;;;;;28.57;16.13;;;10.70;99.90;;;;;;5123054;27;20200;-59
2021/05/13 02:07:50;;;;;;;24.03;15.30;;;10.70;99.90;;;;;;5132404;27;20196;-60
2021/05/13 02:10:17;;;;;;;24.87;15.37;;;10.60;99.90;;;;;;5126809;27;20188;-59
2021/05/13 02:12:44;;;;;;;24.40;14.67;;;10.70;99.90;;;;;;5127090;27;20183;-57
2021/05/13 02:15:13;;;;;;;29.27;15.60;;;10.60;99.90;;;;;;5119652;27;20217;-60
2021/05/13 02:17:39;;;;;;;27.10;15.67;;;10.70;99.90;;;;;;5125548;27;20237;-59
2021/05/13 02:20:07;;;;;;;24.93;16.03;;;10.70;99.90;;;;;;5115576;27;20215;-59
2021/05/13 02:22:34;;;;;;;25.17;15.83;;;10.60;99.90;;;;;;5136559;27;20212;-58
2021/05/13 02:25:00;;;;;;;24.53;14.73;;;10.70;99.90;;;;;;5146539;27;20264;-51
2021/05/13 02:27:26;;;;;;;23.57;14.63;;;10.60;99.90;;;;;;5143927;27;20184;-56
2021/05/13 02:29:56;;;;;;;24.80;14.87;;;;;;;;;;5135355;27;20192;-54
2021/05/13 02:32:22;;;;;;;25.97;15.37;;;11.10;99.90;;;;;;5122892;27;20981;-54
2021/05/13 02:34:48;;;;;;;26.33;16.20;;;10.60;99.90;;;;;;5126494;27;20219;-57
2021/05/13 02:37:14;;;;;;;24.97;15.33;;;10.60;99.90;;;;;;5120410;27;20208;-61
2021/05/13 02:39:40;;;;;;;24.00;15.00;;;10.60;99.90;;;;;;5145976;27;20180;-60
2021/05/13 02:42:06;;;;;;;23.77;15.03;;;10.60;99.90;;;;;;5148878;27;20661;-60
2021/05/13 02:44:33;;;;;;;25.93;15.50;;;10.60;99.90;;;;;;5148233;27;20223;-59
2021/05/13 02:46:59;;;;;;;24.23;15.47;;;10.60;99.90;;;;;;5116478;27;20216;-60
2021/05/13 02:49:26;;;;;;;24.00;14.10;;;10.60;99.90;;;;;;5101275;28;20892;-57
2021/05/13 02:51:52;;;;;;;27.07;16.30;;;10.60;99.90;;;;;;5124188;27;20314;-58
2021/05/13 02:54:18;;;;;;;25.73;15.77;;;10.50;99.90;;;;;;5138154;27;20235;-58
2021/05/13 02:56:44;;;;;;;25.23;16.47;;;10.50;99.90;;;;;;5146623;27;20548;-58
2021/05/13 02:59:11;;;;;;;27.37;15.63;;;10.50;99.90;;;;;;5127223;27;20203;-57
2021/05/13 03:01:37;;;;;;;25.57;16.57;;;10.50;99.90;;;;;;5129966;27;20224;-58
2021/05/13 03:04:04;;;;;;;25.47;15.97;;;10.50;99.90;;;;;;5105349;28;20209;-58
2021/05/13 03:06:30;;;;;;;26.07;16.90;;;10.50;99.90;;;;;;5091997;27;20204;-56
2021/05/13 03:08:57;;;;;;;30.50;16.40;;;10.50;99.90;;;;;;5136825;27;20188;-59
2021/05/13 03:11:26;;;;;;;23.73;15.93;;;10.50;99.90;;;;;;5142704;27;20188;-56
2021/05/13 03:13:54;;;;;;;29.20;16.87;;;10.40;99.90;;;;;;5146363;27;20203;-59
2021/05/13 03:16:21;;;;;;;24.27;16.30;;;10.50;99.90;;;;;;5135121;27;20224;-59
2021/05/13 03:18:50;;;;;;;28.63;16.80;;;10.50;99.90;;;;;;5105011;28;20201;-57
2021/05/13 03:21:23;;;;;;;26.27;16.53;;;10.50;99.90;;;;;;5093743;27;20209;-59
2021/05/13 03:23:54;;;;;;;28.30;17.07;;;10.50;99.90;;;;;;5134969;27;20308;-56
2021/05/13 03:26:30;;;;;;;30.03;17.20;;;10.40;99.90;;;;;;5131633;27;20737;-57
2021/05/13 03:28:56;;;;;;;31.73;17.17;;;10.50;99.90;;;;;;5116393;27;20677;-57
2021/05/13 03:31:22;;;;;;;29.97;18.30;;;10.40;99.90;;;;;;5120833;27;20191;-53
2021/05/13 03:33:48;;;;;;;30.53;18.27;;;10.40;99.90;;;;;;5129882;27;21049;-55
2021/05/13 03:36:14;;;;;;;31.10;17.50;;;10.40;99.90;;;;;;5142886;27;20203;-59
2021/05/13 03:38:41;;;;;;;32.03;17.47;;;10.40;99.90;;;;;;5125476;27;20195;-57
2021/05/13 03:41:07;;;;;;;32.63;17.77;;;10.40;99.90;;;;;;5137029;27;20272;-58
2021/05/13 03:43:34;;;;;;;30.13;17.63;;;10.50;99.90;;;;;;5143466;27;20216;-58
2021/05/13 03:46:00;;;;;;;34.90;17.93;;;10.50;99.90;;;;;;5145924;27;20196;-56
2021/05/13 03:48:26;;;;;;;33.67;17.83;;;10.50;99.90;;;;;;5132642;27;20252;-55
2021/05/13 03:50:52;;;;;;;30.17;18.13;;;10.50;99.90;;;;;;5104046;28;20214;-55
2021/05/13 03:53:18;;;;;;;32.40;17.17;;;10.50;99.90;;;;;;5112300;27;20713;-57
2021/05/13 03:55:51;;;;;;;29.83;16.07;;;10.50;99.90;;;;;;5133559;27;20211;-58
2021/05/13 03:58:18;;;;;;;26.60;16.67;;;10.50;99.90;;;;;;5122327;27;20750;-58
2021/05/13 04:00:48;;;;;;;31.90;17.50;;;10.50;99.90;;;;;;5115889;27;20726;-57
2021/05/13 04:03:14;;;;;;;29.90;16.57;;;10.50;99.90;;;;;;5111673;27;22628;-58
2021/05/13 04:05:40;;;;;;;40.40;18.60;;;10.50;99.90;;;;;;5122208;27;20601;-57
2021/05/13 04:08:07;;;;;;;32.77;18.53;;;10.50;99.90;;;;;;5115527;27;22681;-61
2021/05/13 04:10:33;;;;;;;32.80;17.30;;;10.50;99.90;;;;;;5117159;27;20227;-61
2021/05/13 04:13:03;;;;;;;28.33;16.77;;;10.50;99.90;;;;;;5121663;27;20187;-59
2021/05/13 04:15:29;;;;;;;32.60;18.07;;;10.50;99.90;;;;;;5135228;27;20192;-59
2021/05/13 04:17:55;;;;;;;32.87;17.60;;;10.50;99.90;;;;;;5124381;27;20200;-59
2021/05/13 04:20:22;;;;;;;30.83;17.20;;;10.50;99.90;;;;;;5107085;27;20210;-56
2021/05/13 04:22:48;;;;;;;33.40;17.87;;;10.50;99.90;;;;;;5125961;27;20220;-56
2021/05/13 04:25:14;;;;;;;32.10;17.73;;;10.50;99.90;;;;;;5097273;27;20262;-57
2021/05/13 04:27:40;;;;;;;34.33;17.70;;;10.50;99.90;;;;;;5136892;27;20200;-56
2021/05/13 04:30:09;;;;;;;41.07;18.57;;;10.50;99.90;;;;;;5120125;27;20188;-58
2021/05/13 04:32:35;;;;;;;34.30;18.17;;;10.50;99.90;;;;;;5125344;27;20188;-58
2021/05/13 04:35:01;;;;;;;31.63;18.80;;;10.50;99.90;;;;;;5115655;27;20802;-58
2021/05/13 04:37:27;;;;;;;30.27;18.37;;;10.40;99.90;;;;;;5131227;27;20689;-57
2021/05/13 04:39:53;;;;;;;36.43;18.37;;;10.50;99.90;;;;;;5098400;27;20204;-58
2021/05/13 04:42:20;;;;;;;37.73;18.30;;;10.50;99.90;;;;;;5132171;27;20234;-60
2021/05/13 04:44:46;;;;;;;34.43;18.77;;;10.50;99.90;;;;;;5142478;27;20276;-60
2021/05/13 04:47:26;;;;;;;28.83;17.50;;;10.50;99.90;;;;;;5143720;27;20909;-55
2021/05/13 04:49:54;;;;;;;35.20;17.53;;;10.50;99.90;;;;;;5136684;27;20199;-58
2021/05/13 04:52:23;;;;;;;30.90;18.17;;;10.50;99.90;;;;;;5101630;27;20208;-54
2021/05/13 04:54:49;;;;;;;33.70;17.63;;;10.50;99.90;;;;;;5110994;27;20261;-53
2021/05/13 04:57:16;;;;;;;28.63;16.70;;;10.60;99.90;;;;;;5099573;27;20199;-57
2021/05/13 04:59:42;;;;;;;32.73;18.53;;;10.60;99.90;;;;;;5129522;27;20249;-58
2021/05/13 05:02:08;;;;;;;32.63;16.90;;;10.60;99.90;;;;;;5141643;27;20203;-57
2021/05/13 05:04:35;;;;;;;27.93;16.30;;;10.60;99.90;;;;;;5144140;27;20247;-58
2021/05/13 05:07:02;;;;;;;37.73;17.43;;;10.60;99.90;;;;;;5116163;27;20199;-56
2021/05/13 05:09:28;;;;;;;33.77;16.30;;;10.60;99.90;;;;;;5117324;27;20606;-57
2021/05/13 05:11:54;;;;;;;32.03;17.33;;;10.60;99.90;;;;;;5104904;27;20203;-60
2021/05/13 05:14:20;;;;;;;35.30;18.50;;;10.70;99.90;;;;;;5137182;27;20277;-59
2021/05/13 05:16:46;;;;;;;27.60;16.77;;;10.70;99.90;;;;;;5146469;27;20641;-58
2021/05/13 05:19:12;;;;;;;28.27;16.00;;;10.70;99.90;;;;;;5145153;27;20187;-59
2021/05/13 05:21:39;;;;;;;28.83;16.83;;;10.70;99.90;;;;;;5127165;27;20290;-58
2021/05/13 05:24:06;;;;;;;31.40;16.73;;;10.70;99.90;;;;;;5112790;27;20222;-57
2021/05/13 05:26:33;;;;;;;25.10;15.47;;;10.70;99.90;;;;;;5109199;27;20213;-57
2021/05/13 05:28:59;;;;;;;28.37;15.70;;;10.70;99.90;;;;;;5113852;27;20203;-59
2021/05/13 05:31:25;;;;;;;29.10;16.77;;;10.70;99.90;;;;;;5139472;27;20195;-58
2021/05/13 05:33:51;;;;;;;22.93;14.07;;;10.70;99.90;;;;;;5125430;27;20224;-58
2021/05/13 05:36:17;;;;;;;27.07;15.63;;;10.70;99.90;;;;;;5121432;27;20204;-56
2021/05/13 05:38:59;;;;;;;27.53;15.07;;;10.70;99.90;;;;;;5095999;27;20200;-54
2021/05/13 05:41:25;;;;;;;28.23;16.07;;;10.70;99.90;;;;;;5097371;27;20291;-61
2021/05/13 05:43:51;;;;;;;25.17;14.73;;;10.70;99.90;;;;;;5109810;27;20216;-54
2021/05/13 05:46:18;;;;;;;29.70;15.83;;;10.70;99.90;;;;;;5134481;27;20200;-60
2021/05/13 05:48:44;;;;;;;26.70;15.57;;;10.70;99.90;;;;;;5138963;27;20194;-51
2021/05/13 05:51:10;;;;;;;24.40;15.67;;;10.70;99.90;;;;;;5139581;27;20733;-60
2021/05/13 05:53:36;;;;;;;26.73;15.53;;;10.70;99.90;;;;;;5121421;27;20910;-55
2021/05/13 05:56:04;;;;;;;22.77;15.20;;;10.70;99.90;;;;;;5108610;27;20580;-56
2021/05/13 05:58:30;;;;;;;29.00;15.10;;;10.70;99.90;;;;;;5088154;27;20192;-58
2021/05/13 06:00:56;;;;;;;24.67;15.37;;;10.70;99.90;;;;;;5134209;27;20196;-56
2021/05/13 06:03:23;;;;;;;24.83;14.90;;;10.80;99.90;;;;;;5141392;27;20255;-58
2021/05/13 06:05:49;;;;;;;26.27;14.83;;;10.80;99.90;;;;;;5133903;27;20208;-58
2021/05/13 06:08:15;;;;;;;24.17;14.17;;;10.80;99.90;;;;;;5122860;27;20201;-59
2021/05/13 06:10:41;;;;;;;28.17;16.17;;;10.80;99.90;;;;;;5113910;27;20213;-58
2021/05/13 06:13:08;;;;;;;24.97;14.57;;;10.80;99.90;;;;;;5123367;27;20193;-57
2021/05/13 06:15:36;;;;;;;26.83;14.23;;;10.90;99.90;;;;;;5113902;27;20303;-56
2021/05/13 06:18:02;;;;;;;26.70;15.57;;;10.90;99.90;;;;;;5139375;27;20546;-58
2021/05/13 06:20:30;;;;;;;27.40;14.73;;;10.90;99.90;;;;;;5141205;27;20695;-59
2021/05/13 06:22:56;;;;;;;25.17;14.10;;;10.90;99.90;;;;;;5132386;27;20208;-58
2021/05/13 06:25:24;;;;;;;24.90;14.63;;;10.90;99.90;;;;;;5145078;27;20209;-57
2021/05/13 06:27:50;;;;;;;25.57;14.13;;;10.90;99.90;;;;;;5126752;27;20207;-58
2021/05/13 06:30:19;;;;;;;26.50;15.70;;;10.90;99.90;;;;;;5111605;27;20653;-58
2021/05/13 06:32:46;;;;;;;28.43;14.90;;;10.90;99.90;;;;;;5136828;27;20920;-59
2021/05/13 06:35:14;;;;;;;22.93;13.90;;;10.90;99.90;;;;;;5147045;27;20212;-57
2021/05/13 06:37:40;;;;;;;24.33;14.03;;;10.90;99.90;;;;;;5144329;27;20191;-54
2021/05/13 06:40:08;;;;;;;25.50;15.40;;;11.00;99.90;;;;;;5111839;27;20194;-58
2021/05/13 06:42:35;;;;;;;25.50;15.03;;;10.90;99.90;;;;;;5097599;27;20201;-59
2021/05/13 06:45:01;;;;;;;27.20;14.63;;;11.00;99.90;;;;;;5106002;28;20225;-58
2021/05/13 06:47:28;;;;;;;28.43;14.93;;;11.00;99.90;;;;;;5116114;27;20665;-57
2021/05/13 06:49:54;;;;;;;27.63;14.70;;;11.00;99.90;;;;;;5126515;27;20193;-53
2021/05/13 06:52:20;;;;;;;21.70;13.63;;;11.00;99.90;;;;;;5127032;27;20860;-60
2021/05/13 06:54:47;;;;;;;29.10;13.97;;;11.10;99.90;;;;;;5112176;27;20998;-61
2021/05/13 06:57:13;;;;;;;24.47;13.93;;;11.00;99.90;;;;;;5120142;27;20877;-56
2021/05/13 06:59:41;;;;;;;24.33;14.80;;;11.10;99.90;;;;;;5119945;27;20204;-57
2021/05/13 07:02:08;;;;;;;28.30;13.83;;;11.10;99.90;;;;;;5097756;27;20210;-61
2021/05/13 07:04:35;;;;;;;23.03;12.80;;;11.10;99.90;;;;;;5139917;27;20222;-61
2021/05/13 07:07:01;;;;;;;20.20;11.43;;;11.20;99.90;;;;;;5133158;27;20201;-61
2021/05/13 07:09:27;;;;;;;18.87;12.30;;;11.20;99.90;;;;;;5117597;27;20197;-59
2021/05/13 07:11:53;;;;;;;17.97;10.33;;;11.20;99.90;;;;;;5118457;27;20715;-56
2021/05/13 07:14:21;;;;;;;19.60;12.03;;;11.20;99.90;;;;;;5114965;27;20701;-59
2021/05/13 07:16:47;;;;;;;19.20;11.47;;;11.30;99.90;;;;;;5113941;27;20212;-57
2021/05/13 07:19:13;;;;;;;14.17;10.00;;;11.30;99.90;;;;;;5111264;27;20250;-59
2021/05/13 07:21:40;;;;;;;18.23;11.27;;;11.30;99.90;;;;;;5132796;27;20638;-58
2021/05/13 07:24:07;;;;;;;18.27;10.73;;;11.30;99.90;;;;;;5127023;27;20286;-60
2021/05/13 07:26:34;;;;;;;18.83;11.57;;;11.20;99.90;;;;;;5108714;27;20706;-60
2021/05/13 07:29:00;;;;;;;18.10;11.47;;;11.20;99.90;;;;;;5100525;27;20189;-59
2021/05/13 07:31:26;;;;;;;19.50;11.33;;;11.20;99.90;;;;;;5109047;27;20650;-50
2021/05/13 07:33:52;;;;;;;16.93;10.30;;;11.20;99.90;;;;;;5106465;27;20220;-61
2021/05/13 07:36:19;;;;;;;12.40;10.10;;;11.20;99.90;;;;;;5133562;27;20669;-50
2021/05/13 07:38:46;;;;;;;14.17;9.40;;;11.20;99.90;;;;;;5123327;27;20241;-61
2021/05/13 07:41:14;;;;;;;16.77;10.20;;;11.20;99.90;;;;;;5115490;27;20684;-55
2021/05/13 07:43:42;;;;;;;14.50;10.67;;;11.20;99.90;;;;;;5130040;27;20711;-61
2021/05/13 07:46:09;;;;;;;15.60;9.97;;;11.20;99.90;;;;;;5103409;27;20205;-53
2021/05/13 07:48:35;;;;;;;15.30;9.93;;;11.20;99.90;;;;;;5100598;27;20197;-57
2021/05/13 07:51:01;;;;;;;14.37;10.07;;;11.20;99.90;;;;;;5116729;27;20204;-55
2021/05/13 07:53:27;;;;;;;19.27;10.90;;;11.30;99.90;;;;;;5141534;27;20288;-50
2021/05/13 07:55:55;;;;;;;13.87;10.33;;;11.20;99.90;;;;;;5121415;27;20201;-60
2021/05/13 07:58:22;;;;;;;18.37;11.27;;;11.30;99.90;;;;;;5110144;27;20208;-55
2021/05/13 08:00:49;;;;;;;18.13;10.43;;;11.30;99.90;;;;;;5111340;27;20189;-59
2021/05/13 08:03:15;;;;;;;18.17;10.87;;;11.30;99.90;;;;;;5104076;27;20225;-54
2021/05/13 08:05:41;;;;;;;17.97;11.73;;;11.20;99.90;;;;;;5108040;27;20221;-56
2021/05/13 08:08:08;;;;;;;16.47;10.23;;;11.30;99.90;;;;;;5122095;27;20188;-57
2021/05/13 08:10:34;;;;;;;13.77;9.33;;;11.30;99.90;;;;;;5124262;27;20192;-57
2021/05/13 08:13:01;;;;;;;17.10;9.93;;;11.40;99.90;;;;;;5115660;27;20197;-56
2021/05/13 08:15:27;;;;;;;12.37;8.90;;;11.40;99.90;;;;;;5125034;27;20196;-57
2021/05/13 08:17:53;;;;;;;10.93;8.10;;;11.50;99.90;;;;;;5095127;27;20280;-57
2021/05/13 08:20:20;;;;;;;12.90;8.67;;;11.40;99.90;;;;;;5090297;27;20201;-57
2021/05/13 08:22:47;;;;;;;11.20;7.87;;;11.50;99.90;;;;;;5127473;27;20208;-56
2021/05/13 08:25:18;;;;;;;12.03;7.90;;;11.50;99.90;;;;;;5114856;27;20304;-56
2021/05/13 08:27:45;;;;;;;8.93;8.03;;;11.50;99.90;;;;;;5116420;27;20680;-58
2021/05/13 08:30:13;;;;;;;11.00;7.30;;;11.60;99.90;;;;;;5134685;27;20227;-59
2021/05/13 08:32:39;;;;;;;8.50;7.23;;;11.60;99.90;;;;;;5133353;27;20196;-58
2021/05/13 08:35:06;;;;;;;8.97;6.83;;;11.60;99.90;;;;;;5101604;27;20228;-59
2021/05/13 08:37:32;;;;;;;8.67;7.10;;;11.70;99.90;;;;;;5133750;27;20185;-58
2021/05/13 08:39:58;;;;;;;9.30;6.57;;;11.70;99.90;;;;;;5113107;27;20201;-57
2021/05/13 08:42:24;;;;;;;7.80;6.43;;;11.80;99.90;;;;;;5103564;28;20690;-57
2021/05/13 08:44:52;;;;;;;11.20;6.80;;;11.80;99.90;;;;;;5103634;27;21033;-54
2021/05/13 08:47:19;;;;;;;9.57;5.87;;;11.80;99.90;;;;;;5104984;27;20575;-57
2021/05/13 08:49:45;;;;;;;8.53;5.90;;;11.80;99.90;;;;;;5118626;27;20204;-58
2021/05/13 08:52:13;;;;;;;7.07;6.33;;;11.80;99.90;;;;;;5108379;27;20721;-52
2021/05/13 08:54:50;;;;;;;6.17;5.23;;;11.90;99.90;;;;;;5130908;27;20259;-57
2021/05/13 08:57:17;;;;;;;7.07;5.57;;;11.90;99.90;;;;;;5103480;28;20276;-56
2021/05/13 08:59:43;;;;;;;10.13;5.57;;;11.90;99.90;;;;;;5112630;27;20196;-58
2021/05/13 09:02:10;;;;;;;6.07;5.47;;;11.90;99.90;;;;;;5101982;27;20220;-53
2021/05/13 09:04:39;;;;;;;7.13;5.80;;;11.90;99.90;;;;;;5103862;27;20347;-58
2021/05/13 09:07:14;;;;;;;7.53;5.27;;;11.90;99.90;;;;;;5106386;27;20212;-56
2021/05/13 09:09:59;;;;;;;7.80;5.43;;;11.90;99.90;;;;;;5120660;27;20204;-58
2021/05/13 09:12:26;;;;;;;7.13;5.33;;;11.90;99.90;;;;;;5125981;27;20197;-59
2021/05/13 09:15:01;;;;;;;6.33;5.13;;;11.80;99.90;;;;;;5123123;27;20273;-57
2021/05/13 09:17:29;;;;;;;6.47;5.67;;;11.80;99.90;;;;;;5120718;27;20284;-59
2021/05/13 09:19:56;;;;;;;6.17;5.40;;;11.80;99.90;;;;;;5117976;27;23061;-59
2021/05/13 09:22:25;;;;;;;11.50;6.43;;;11.90;99.90;;;;;;5120772;27;20225;-59
2021/05/13 09:24:55;;;;;;;6.70;5.47;;;11.90;99.90;;;;;;5117994;27;20224;-57
2021/05/13 09:27:24;;;;;;;6.20;5.53;;;11.90;99.90;;;;;;5142640;27;20661;-59
2021/05/13 09:30:03;;;;;;;6.07;5.47;;;12.00;99.90;;;;;;5143654;27;20184;-59
2021/05/13 09:32:29;;;;;;;6.37;5.47;;;12.00;99.90;;;;;;5135077;27;20203;-57
2021/05/13 09:35:03;;;;;;;6.60;5.07;;;12.00;99.90;;;;;;5117877;27;20215;-57
2021/05/13 09:37:36;;;;;;;6.30;5.70;;;12.00;99.90;;;;;;5110155;27;20204;-58
2021/05/13 09:40:03;;;;;;;8.53;5.53;;;12.00;99.90;;;;;;5105497;27;21060;-56
2021/05/13 09:42:29;;;;;;;6.10;5.20;;;12.10;99.90;;;;;;5135361;27;20526;-56
2021/05/13 09:44:55;;;;;;;7.87;5.77;;;12.20;99.90;;;;;;5140485;27;20204;-56
2021/05/13 09:47:26;;;;;;;8.00;6.20;;;12.20;99.90;;;;;;5109898;27;20208;-53
2021/05/13 09:50:02;;;;;;;8.27;6.20;;;12.20;99.90;;;;;;5118452;27;20201;-55
2021/05/13 09:52:39;;;;;;;6.23;5.20;;;12.30;99.90;;;;;;5107048;27;20204;-56
2021/05/13 09:55:13;;;;;;;7.97;5.33;;;12.30;99.90;;;;;;5116512;27;20274;-56
2021/05/13 09:57:40;;;;;;;9.63;5.63;;;12.30;99.90;;;;;;5145479;27;20200;-58
2021/05/13 10:00:07;;;;;;;7.53;5.87;;;12.30;99.90;;;;;;5150615;27;20271;-57
2021/05/13 10:02:35;;;;;;;5.63;4.43;;;12.30;99.90;;;;;;5153175;27;20212;-59
2021/05/13 10:05:04;;;;;;;6.07;4.90;;;12.30;99.90;;;;;;5115196;27;20232;-58
2021/05/13 10:07:30;;;;;;;5.83;5.23;;;12.20;99.90;;;;;;5111986;27;20203;-58
2021/05/13 10:09:57;;;;;;;10.70;5.40;;;12.20;99.90;;;;;;5111861;27;20195;-57
2021/05/13 10:12:23;;;;;;;9.27;5.77;;;12.10;99.90;;;;;;5130307;27;20188;-59
2021/05/13 10:14:52;;;;;;;9.03;6.20;;;12.10;99.90;;;;;;5122834;27;20219;-58
2021/05/13 10:17:20;;;;;;;7.23;5.60;;;12.10;99.90;;;;;;5132297;27;20280;-58
2021/05/13 10:19:49;;;;;;;6.23;4.87;;;12.10;99.90;;;;;;5122922;27;20201;-57
2021/05/13 10:22:17;;;;;;;8.90;6.23;;;12.20;99.90;;;;;;5124066;27;20278;-59
2021/05/13 10:24:43;;;;;;;8.57;5.60;;;12.20;99.90;;;;;;5126278;27;20238;-57
2021/05/13 10:27:17;;;;;;;7.20;5.50;;;12.30;99.90;;;;;;5129172;27;20990;-58
2021/05/13 10:29:43;;;;;;;7.33;5.57;;;12.40;99.90;;;;;;5134761;27;20185;-57
2021/05/13 10:32:14;;;;;;;6.93;5.50;;;12.40;99.90;;;;;;5125580;27;20485;-59
2021/05/13 10:34:48;;;;;;;8.10;5.50;;;12.40;99.90;;;;;;5126057;27;20228;-59
2021/05/13 10:37:17;;;;;;;6.20;5.60;;;12.40;99.90;;;;;;5126723;27;20192;-51
2021/05/13 10:40:18;;;;;;;11.90;6.57;;;12.40;99.90;;;;;;5125518;27;20203;-57
2021/05/13 10:42:44;;;;;;;6.53;5.20;;;12.40;99.90;;;;;;5120814;27;20710;-57
2021/05/13 10:45:33;;;;;;;6.50;5.63;;;12.30;99.90;;;;;;5115461;27;20240;-53
2021/05/13 10:48:11;;;;;;;11.10;5.97;;;12.30;99.90;;;;;;5114353;27;20234;-59
2021/05/13 10:50:49;;;;;;;8.17;5.70;;;12.30;99.90;;;;;;5121576;27;20200;-51
2021/05/13 10:53:48;;;;;;;6.10;5.50;;;12.20;99.90;;;;;;5131106;27;20185;-50
2021/05/13 10:56:16;;;;;;;8.17;5.43;;;12.20;99.90;;;;;;5098711;27;20200;-53
2021/05/13 10:58:58;;;;;;;9.10;5.93;;;12.30;99.90;;;;;;5119658;27;20246;-58
2021/05/13 11:01:41;;;;;;;9.13;5.67;;;12.30;99.90;;;;;;5129758;27;20271;-55
2021/05/13 11:04:43;;;;;;;6.63;5.80;;;12.30;99.90;;;;;;5122737;27;20227;-57
2021/05/13 11:07:29;;;;;;;8.50;5.80;;;12.30;99.90;;;;;;5127300;27;20887;-54
2021/05/13 11:10:01;;;;;;;8.83;5.50;;;12.40;99.90;;;;;;5119507;27;20185;-59
2021/05/13 11:12:36;;;;;;;7.17;5.50;;;12.40;99.90;;;;;;5112387;27;20204;-59
2021/05/13 11:15:14;;;;;;;9.87;5.23;;;12.40;99.90;;;;;;5118105;27;20599;-57
2021/05/13 11:18:06;;;;;;;6.03;4.67;;;12.50;99.90;;;;;;5138017;27;20254;-57
2021/05/13 11:20:34;;;;;;;5.30;4.40;;;12.40;99.90;;;;;;5119710;27;20192;-54
2021/05/13 11:23:03;;;;;;;9.43;5.03;;;12.40;99.90;;;;;;5119656;27;20257;-57
2021/05/13 11:25:40;;;;;;;5.67;4.87;;;12.50;99.90;;;;;;5124662;27;20187;-58
2021/05/13 11:28:27;;;;;;;6.27;4.70;;;12.50;99.90;;;;;;5115665;27;20925;-55
2021/05/13 11:30:55;;;;;;;7.67;4.67;;;12.60;99.90;;;;;;5140946;27;20256;-53
2021/05/13 11:33:22;;;;;;;7.10;4.80;;;12.60;99.90;;;;;;5146695;27;20208;-57
2021/05/13 11:35:48;;;;;;;5.40;4.37;;;12.60;99.90;;;;;;5137223;27;20192;-59
2021/05/13 11:38:21;;;;;;;5.57;4.53;;;12.60;99.90;;;;;;5127319;27;20224;-59
2021/05/13 11:40:49;;;;;;;4.97;4.50;;;12.60;99.90;;;;;;5113454;27;20201;-59
2021/05/13 11:43:17;;;;;;;6.30;4.47;;;12.60;99.90;;;;;;5120741;27;20218;-59
2021/05/13 11:45:44;;;;;;;7.07;5.43;;;12.60;99.90;;;;;;5139552;27;20614;-58
2021/05/13 11:48:31;;;;;;;6.33;5.37;;;12.60;99.90;;;;;;5148934;27;20186;-59
2021/05/13 11:51:00;;;;;;;5.20;4.70;;;12.60;99.90;;;;;;5146215;27;20868;-59
2021/05/13 11:53:26;;;;;;;6.00;5.03;;;12.50;99.90;;;;;;5134438;27;20220;-59
2021/05/13 11:55:54;;;;;;;6.33;5.27;;;12.50;99.90;;;;;;5134613;27;20180;-59
2021/05/13 11:58:41;;;;;;;5.40;4.90;;;12.50;99.90;;;;;;5114970;27;20196;-58
2021/05/13 12:01:19;;;;;;;5.33;4.13;;;12.50;99.90;;;;;;5127107;27;20230;-58
2021/05/13 12:03:47;;;;;;;5.93;4.63;;;12.50;99.90;;;;;;5122360;27;20220;-59
2021/05/13 12:06:13;;;;;;;9.73;5.73;;;12.40;99.90;;;;;;5111761;27;20215;-55
2021/05/13 12:08:40;;;;;;;6.80;5.20;;;12.40;99.90;;;;;;5100241;27;20201;-57
2021/05/13 12:11:24;;;;;;;7.30;5.90;;;12.40;99.90;;;;;;5111886;27;20216;-55
2021/05/13 12:13:51;;;;;;;7.53;5.23;;;12.50;99.90;;;;;;5099981;27;20217;-59
2021/05/13 12:16:19;;;;;;;7.27;5.67;;;12.50;99.90;;;;;;5120909;27;20534;-52
2021/05/13 12:18:47;;;;;;;6.30;5.70;;;12.50;99.90;;;;;;5140054;27;20196;-59
2021/05/13 12:21:15;;;;;;;6.77;5.50;;;12.50;99.90;;;;;;5125712;27;20197;-60
2021/05/13 12:23:44;;;;;;;5.67;5.17;;;12.50;99.90;;;;;;5129171;27;20234;-59
2021/05/13 12:26:12;;;;;;;7.07;5.27;;;12.50;99.90;;;;;;5116271;27;20181;-55
2021/05/13 12:28:42;;;;;;;5.30;4.80;;;12.50;99.90;;;;;;5097061;27;20369;-58
2021/05/13 12:31:09;;;;;;;5.47;4.90;;;12.50;99.90;;;;;;5126733;27;20215;-58
2021/05/13 12:33:40;;;;;;;5.83;5.00;;;12.50;99.90;;;;;;5141304;27;20260;-58
2021/05/13 12:36:12;;;;;;;5.30;4.63;;;12.50;99.90;;;;;;5109021;27;20204;-58
2021/05/13 12:38:42;;;;;;;6.23;4.87;;;12.50;99.90;;;;;;5114466;27;20203;-60
2021/05/13 12:41:10;;;;;;;6.10;5.37;;;12.50;99.90;;;;;;5126965;27;20420;-59